createdAt,value
2022-10-22T08:38:04.014Z,8568.00
2022-10-22T08:39:03.824Z,8476.00
2022-10-22T08:40:03.829Z,8352.00
2022-10-22T08:41:03.689Z,8884.00
2022-10-22T08:42:03.838Z,9084.00
2022-10-22T08:43:03.854Z,9184.00
2022-10-22T08:44:03.653Z,9408.00
2022-10-22T08:45:03.653Z,9556.00
2022-10-22T08:46:03.648Z,9328.00
2022-10-22T08:47:03.666Z,9428.00
2022-10-22T08:48:03.662Z,10024.00
2022-10-22T08:49:03.722Z,10164.00
2022-10-22T08:50:03.686Z,10020.00
2022-10-22T08:51:03.690Z,10156.00
2022-10-22T08:52:03.697Z,10368.00
2022-10-22T08:53:03.708Z,10392.00
2022-10-22T08:54:03.716Z,9864.00
2022-10-22T08:55:03.541Z,10224.00
2022-10-22T08:56:03.520Z,10380.00
2022-10-22T08:57:03.536Z,10412.00
2022-10-22T08:58:03.550Z,10612.00
2022-10-22T08:59:03.515Z,10644.00
2022-10-22T09:00:03.550Z,10528.00
2022-10-22T09:01:03.549Z,10280.00
2022-10-22T09:02:03.579Z,10140.00
2022-10-22T09:03:03.569Z,9800.00
2022-10-22T09:04:03.554Z,9784.00
2022-10-22T09:05:03.576Z,10032.00
2022-10-22T09:06:03.588Z,9744.00
2022-10-22T09:07:03.418Z,9804.00
2022-10-22T09:08:03.414Z,10076.00
2022-10-22T09:09:03.861Z,10232.00
2022-10-22T09:10:03.397Z,10268.00
2022-10-22T09:11:03.407Z,10456.00
2022-10-22T09:12:03.409Z,10928.00
2022-10-22T09:13:03.420Z,10868.00
2022-10-22T09:14:03.554Z,11104.00
2022-10-22T09:15:03.435Z,11420.00
2022-10-22T09:16:03.433Z,11400.00
2022-10-22T09:17:03.440Z,11716.00
2022-10-22T09:18:03.470Z,12224.00
2022-10-22T09:19:03.271Z,12064.00
2022-10-22T09:20:03.367Z,12824.00
2022-10-22T09:21:03.475Z,12872.00
2022-10-22T09:22:03.718Z,13324.00
2022-10-22T09:23:03.279Z,12976.00
2022-10-22T09:24:03.303Z,13876.00
2022-10-22T09:25:03.325Z,13504.00
2022-10-22T09:26:03.304Z,15312.00
2022-10-22T09:27:03.290Z,14752.00
2022-10-22T09:28:03.313Z,13360.00
2022-10-22T09:29:03.324Z,14848.00
2022-10-22T09:30:03.546Z,16224.00
2022-10-22T09:31:03.645Z,16288.00
2022-10-22T09:32:03.335Z,15776.00
2022-10-22T09:33:04.008Z,13744.00
2022-10-22T09:34:03.360Z,12128.00
2022-10-22T09:35:03.563Z,10396.00
2022-10-22T09:36:03.156Z,13784.00
2022-10-22T09:37:03.172Z,12924.00
2022-10-22T09:38:03.393Z,11936.00
2022-10-22T09:39:03.426Z,12736.00
2022-10-22T09:40:03.584Z,13580.00
2022-10-22T09:41:03.220Z,11576.00
2022-10-22T09:42:03.208Z,11928.00
2022-10-22T09:43:03.022Z,11292.00
2022-10-22T09:44:03.025Z,12428.00
2022-10-22T09:45:03.025Z,14724.00
2022-10-22T09:46:03.017Z,14740.00
2022-10-22T09:47:03.037Z,17344.00
2022-10-22T09:48:03.291Z,15968.00
2022-10-22T09:49:03.241Z,13900.00
2022-10-22T09:50:03.045Z,15840.00
2022-10-22T09:51:03.102Z,16224.00
2022-10-22T09:52:03.288Z,14672.00
2022-10-22T09:53:03.280Z,13164.00
2022-10-22T09:54:03.068Z,14460.00
2022-10-22T09:55:02.907Z,16064.00
2022-10-22T09:56:02.882Z,14832.00
2022-10-22T09:57:02.999Z,14480.00
2022-10-22T09:58:02.905Z,16192.00
2022-10-22T09:59:02.896Z,16320.00
2022-10-22T10:00:03.108Z,18720.00
2022-10-22T10:01:02.982Z,17888.00
2022-10-22T10:02:13.633Z,14940.00
2022-10-22T10:03:03.983Z,17184.00
2022-10-22T10:04:06.953Z,18080.00
2022-10-22T10:05:03.800Z,17184.00
2022-10-22T10:06:05.839Z,14916.00
2022-10-22T10:07:02.848Z,18848.00
2022-10-22T10:08:02.765Z,18880.00
2022-10-22T10:09:02.832Z,19136.00
2022-10-22T10:10:02.774Z,19136.00
2022-10-22T10:11:02.969Z,20480.00
2022-10-22T10:12:02.796Z,23008.00
2022-10-22T10:13:02.812Z,35904.00
2022-10-22T10:14:02.837Z,44064.00
2022-10-22T10:15:02.799Z,25280.00
2022-10-22T10:16:02.810Z,40448.00
2022-10-22T10:17:03.022Z,58240.00
2022-10-22T10:18:02.830Z,58272.00
2022-10-22T10:19:03.050Z,56416.00
2022-10-22T10:20:04.057Z,42880.00
2022-10-22T10:21:02.703Z,53152.00
2022-10-22T10:22:02.851Z,53728.00
2022-10-22T10:23:02.653Z,58048.00
2022-10-22T10:24:03.066Z,67552.00
2022-10-22T10:25:02.651Z,62368.00
2022-10-22T10:26:02.684Z,16348.00
2022-10-22T10:27:02.883Z,18464.00
2022-10-22T10:28:02.678Z,72576.00
2022-10-22T10:29:02.695Z,70336.00
2022-10-22T10:30:02.524Z,74176.00
2022-10-22T10:31:02.708Z,66464.00
2022-10-22T10:32:02.501Z,14336.00
2022-10-22T10:33:02.513Z,14848.00
2022-10-22T10:34:02.733Z,18624.00
2022-10-22T10:35:02.722Z,56320.00
2022-10-22T10:36:02.925Z,12932.00
2022-10-22T10:37:02.542Z,58240.00
2022-10-22T10:38:02.540Z,72384.00
2022-10-22T10:39:02.546Z,75584.00
2022-10-22T10:40:02.757Z,25024.00
2022-10-22T10:41:02.764Z,14824.00
2022-10-22T10:42:02.775Z,15324.00
2022-10-22T10:43:02.401Z,61280.00
2022-10-22T10:44:02.589Z,18688.00
2022-10-22T10:45:02.377Z,38176.00
2022-10-22T10:46:02.388Z,20192.00
2022-10-22T10:47:02.388Z,15864.00
2022-10-22T10:48:02.393Z,24992.00
2022-10-22T10:49:02.321Z,21408.00
2022-10-22T10:50:02.316Z,13804.00
2022-10-22T10:51:02.333Z,14732.00
2022-10-22T10:52:02.585Z,15212.00
2022-10-22T10:53:02.390Z,27360.00
2022-10-22T10:54:02.644Z,78144.00
2022-10-22T10:55:02.851Z,77760.00
2022-10-22T10:56:02.264Z,76960.00
2022-10-22T10:57:02.244Z,62432.00
2022-10-22T10:58:02.251Z,12452.00
2022-10-22T10:59:02.338Z,11700.00
2022-10-22T11:00:02.395Z,14064.00
2022-10-22T11:01:02.577Z,13356.00
2022-10-22T11:02:02.189Z,11844.00
2022-10-22T11:03:02.307Z,10564.00
2022-10-22T11:04:02.358Z,9808.00
2022-10-22T11:05:02.264Z,10368.00
2022-10-22T11:06:02.209Z,11032.00
2022-10-22T11:07:11.171Z,15500.00
2022-10-22T11:08:03.124Z,26144.00
2022-10-22T11:09:02.165Z,15512.00
2022-10-22T11:10:02.159Z,18560.00
2022-10-22T11:11:02.211Z,30272.00
2022-10-22T11:12:02.097Z,81632.00
2022-10-22T11:13:02.329Z,64576.00
2022-10-22T11:14:02.108Z,24416.00
2022-10-22T11:15:02.233Z,19232.00
2022-10-22T11:16:02.333Z,10892.00
2022-10-22T11:17:02.383Z,8144.00
2022-10-22T11:18:02.028Z,6884.00
2022-10-22T11:19:01.995Z,7076.00
2022-10-22T11:20:02.028Z,6400.00
2022-10-22T11:21:02.002Z,6248.00
2022-10-22T11:22:02.006Z,6824.00
2022-10-22T11:23:18.984Z,7920.00
2022-10-22T11:24:02.948Z,9424.00
2022-10-22T11:25:02.186Z,10360.00
2022-10-22T11:26:01.917Z,11164.00
2022-10-22T11:27:01.975Z,12864.00
2022-10-22T11:28:07.845Z,13780.00
2022-10-22T11:29:02.975Z,61792.00
2022-10-22T11:30:01.979Z,19904.00
2022-10-22T11:31:01.874Z,17472.00
2022-10-22T11:32:01.862Z,13696.00
2022-10-22T11:33:01.911Z,10916.00
2022-10-22T11:34:15.269Z,9648.00
2022-10-22T11:35:03.189Z,10060.00
2022-10-22T11:36:01.848Z,11132.00
2022-10-22T11:37:01.876Z,12836.00
2022-10-22T11:38:02.446Z,15448.00
2022-10-22T11:39:01.805Z,20576.00
2022-10-22T11:40:01.787Z,22432.00
2022-10-22T11:41:01.819Z,81504.00
2022-10-22T11:42:01.737Z,87584.00
2022-10-22T11:43:01.827Z,55264.00
2022-10-22T11:44:01.913Z,46144.00
2022-10-22T11:45:01.958Z,61696.00
2022-10-22T11:46:01.739Z,24672.00
2022-10-22T11:47:01.769Z,29376.00
2022-10-22T11:48:01.767Z,25024.00
2022-10-22T11:49:01.667Z,20320.00
2022-10-22T11:50:01.898Z,23232.00
2022-10-22T11:51:01.780Z,23872.00
2022-10-22T11:52:04.347Z,21792.00
2022-10-22T11:53:02.244Z,26976.00
2022-10-22T11:54:01.808Z,44224.00
2022-10-22T11:55:01.608Z,37664.00
2022-10-22T11:56:01.610Z,41152.00
2022-10-22T11:57:01.617Z,26016.00
2022-10-22T11:58:02.232Z,73728.00
2022-10-22T11:59:01.627Z,91104.00
2022-10-22T12:00:02.050Z,71584.00
2022-10-22T12:01:01.677Z,34048.00
2022-10-22T12:02:02.474Z,26816.00
2022-10-22T12:03:01.668Z,93152.00
2022-10-22T12:04:01.881Z,24224.00
2022-10-22T12:05:01.951Z,83232.00
2022-10-22T12:06:01.607Z,73600.00
2022-10-22T12:07:01.582Z,59776.00
2022-10-22T12:08:01.974Z,30784.00
2022-10-22T12:09:01.899Z,14668.00
2022-10-22T12:10:01.549Z,14712.00
2022-10-22T12:11:01.628Z,31936.00
2022-10-22T12:12:01.608Z,17344.00
2022-10-22T12:13:01.433Z,76640.00
2022-10-22T12:14:01.479Z,63008.00
2022-10-22T12:15:01.853Z,55328.00
2022-10-22T12:16:01.497Z,33120.00
2022-10-22T12:17:01.646Z,45888.00
2022-10-22T12:18:01.432Z,20800.00
2022-10-22T12:19:01.522Z,17120.00
2022-10-22T12:20:02.438Z,21952.00
2022-10-22T12:21:01.356Z,10024.00
2022-10-22T12:22:01.317Z,8492.00
2022-10-22T12:23:01.334Z,7640.00
2022-10-22T12:24:01.371Z,7300.00
2022-10-22T12:25:01.355Z,6528.00
2022-10-22T12:26:01.428Z,5428.00
2022-10-22T12:27:01.384Z,4788.00
2022-10-22T12:28:01.297Z,4372.00
2022-10-22T12:29:01.400Z,3964.00
2022-10-22T12:30:01.844Z,3680.00
2022-10-22T12:31:01.379Z,3540.00
2022-10-22T12:32:01.694Z,3444.00
2022-10-22T12:33:01.248Z,3468.00
2022-10-22T12:34:01.296Z,3384.00
2022-10-22T12:35:01.370Z,3296.00
2022-10-22T12:36:01.399Z,3240.00
2022-10-22T12:37:01.151Z,3240.00
2022-10-22T12:38:01.818Z,3180.00
2022-10-22T12:39:01.248Z,3100.00
2022-10-22T12:40:01.169Z,2932.00
2022-10-22T12:41:01.190Z,2716.00
2022-10-22T12:42:01.294Z,2616.00
2022-10-22T12:43:01.569Z,2712.00
2022-10-22T12:44:01.290Z,2924.00
2022-10-22T12:45:01.295Z,2976.00
2022-10-22T12:46:01.536Z,2964.00
2022-10-22T12:47:01.172Z,3080.00
2022-10-22T12:48:01.193Z,3160.00
2022-10-22T12:49:01.274Z,3284.00
2022-10-22T12:50:01.089Z,3696.00
2022-10-22T12:51:01.385Z,4200.00
2022-10-22T12:52:01.003Z,4392.00
2022-10-22T12:53:01.403Z,4432.00
2022-10-22T12:54:01.477Z,4768.00
2022-10-22T12:55:00.984Z,5552.00
2022-10-22T12:56:01.123Z,7092.00
2022-10-22T12:57:01.375Z,9020.00
2022-10-22T12:58:01.008Z,10792.00
2022-10-22T12:59:00.995Z,11944.00
2022-10-22T13:01:01.032Z,13356.00
2022-10-22T13:02:01.005Z,13224.00
2022-10-22T13:03:01.045Z,13448.00
2022-10-22T13:04:00.925Z,13524.00
2022-10-22T13:05:00.951Z,13820.00
2022-10-22T13:06:00.878Z,13612.00
2022-10-22T13:07:00.873Z,13064.00
2022-10-22T13:08:00.894Z,12948.00
2022-10-22T13:09:01.396Z,12848.00
2022-10-22T13:10:01.140Z,13064.00
2022-10-22T13:11:00.974Z,13932.00
2022-10-22T13:12:01.165Z,13168.00
2022-10-22T13:13:01.711Z,11988.00
2022-10-22T13:14:00.958Z,10760.00
2022-10-22T13:15:00.781Z,9284.00
2022-10-22T13:16:00.780Z,7788.00
2022-10-22T13:17:00.841Z,7332.00
2022-10-22T13:18:01.078Z,7284.00
2022-10-22T13:19:00.767Z,6476.00
2022-10-22T13:20:00.778Z,5836.00
2022-10-22T13:21:00.706Z,5548.00
2022-10-22T13:22:01.552Z,5548.00
2022-10-22T13:23:00.668Z,5160.00
2022-10-22T13:24:00.896Z,4716.00
2022-10-22T13:25:00.668Z,4264.00
2022-10-22T13:26:01.003Z,4084.00
2022-10-22T13:27:00.676Z,4204.00
2022-10-22T13:28:00.693Z,4204.00
2022-10-22T13:29:00.687Z,3720.00
2022-10-22T13:30:01.199Z,3256.00
2022-10-22T13:31:00.630Z,2844.00
2022-10-22T13:32:00.677Z,2532.00
2022-10-22T13:33:00.717Z,2380.00
2022-10-22T13:34:02.462Z,2328.00
2022-10-22T13:35:00.744Z,2244.00
2022-10-22T13:36:00.530Z,2152.00
2022-10-22T13:37:00.652Z,2256.00
2022-10-22T13:38:00.632Z,2448.00
2022-10-22T13:39:00.534Z,2712.00
2022-10-22T13:40:00.581Z,2712.00
2022-10-22T13:41:00.457Z,2640.00
2022-10-22T13:42:00.482Z,2836.00
2022-10-22T13:43:00.528Z,3268.00
2022-10-22T13:44:00.465Z,3552.00
2022-10-22T13:45:00.447Z,3704.00
2022-10-22T13:46:00.436Z,4420.00
2022-10-22T13:47:00.477Z,5984.00
2022-10-22T13:48:00.454Z,6784.00
2022-10-22T13:49:00.438Z,5980.00
2022-10-22T13:50:00.490Z,5064.00
2022-10-22T13:51:00.435Z,5076.00
2022-10-22T13:52:00.438Z,5116.00
2022-10-22T13:53:00.421Z,5132.00
2022-10-22T13:54:00.339Z,4652.00
2022-10-22T13:55:00.461Z,3840.00
2022-10-22T13:56:00.353Z,3188.00
2022-10-22T13:57:00.363Z,3016.00
2022-10-22T13:58:00.371Z,3036.00
2022-10-22T13:59:00.371Z,2988.00
2022-10-22T14:00:00.373Z,2948.00
2022-10-22T14:01:00.502Z,3104.00
2022-10-22T14:02:00.424Z,3548.00
2022-10-22T14:03:00.246Z,4104.00
2022-10-22T14:04:00.307Z,4448.00
2022-10-22T14:05:00.236Z,4536.00
2022-10-22T14:06:00.256Z,4832.00
2022-10-22T14:07:02.873Z,5468.00
2022-10-22T14:08:00.261Z,5900.00
2022-10-22T14:09:00.305Z,5388.00
2022-10-22T14:10:00.203Z,4660.00
2022-10-22T14:11:00.940Z,4148.00
2022-10-22T14:12:00.214Z,3752.00
2022-10-22T14:13:00.131Z,3384.00
2022-10-22T14:14:00.267Z,3120.00
2022-10-22T14:15:00.292Z,2936.00
2022-10-22T14:16:00.129Z,2880.00
2022-10-22T14:17:00.165Z,2728.00
2022-10-22T14:18:00.106Z,2456.00
2022-10-22T14:19:00.263Z,2280.00
2022-10-22T14:20:00.209Z,2216.00
2022-10-22T14:21:00.273Z,2172.00
2022-10-22T14:22:00.106Z,2136.00
2022-10-22T14:23:00.394Z,2052.00
2022-10-22T14:24:00.020Z,1976.00
2022-10-22T14:25:00.034Z,1956.00
2022-10-22T14:26:00.237Z,1944.00
2022-10-22T14:26:59.966Z,1944.00
2022-10-22T14:28:00.012Z,1864.00
2022-10-22T14:29:15.448Z,1968.00
2022-10-22T14:30:01.196Z,2116.00
2022-10-22T14:30:59.905Z,2204.00
2022-10-22T14:31:59.938Z,2456.00
2022-10-22T14:32:59.988Z,3148.00
2022-10-22T14:34:00.191Z,3828.00
2022-10-22T14:34:59.924Z,4608.00
2022-10-22T14:36:00.206Z,5764.00
2022-10-22T14:36:59.994Z,6032.00
2022-10-22T14:38:00.166Z,5068.00
2022-10-22T14:38:59.986Z,4296.00
2022-10-22T14:40:00.192Z,3824.00
2022-10-22T14:41:00.130Z,3192.00
2022-10-22T14:41:59.875Z,2912.00
2022-10-22T14:42:59.939Z,3012.00
2022-10-22T14:44:00.055Z,3436.00
2022-10-22T14:44:59.867Z,4056.00
2022-10-22T14:45:59.875Z,4732.00
2022-10-22T14:46:59.838Z,5348.00
2022-10-22T14:47:59.903Z,4956.00
2022-10-22T14:49:00.272Z,5176.00
2022-10-22T14:50:00.157Z,5240.00
2022-10-22T14:50:59.743Z,5660.00
2022-10-22T14:51:59.727Z,5708.00
2022-10-22T14:52:59.708Z,5680.00
2022-10-22T14:53:59.751Z,5504.00
2022-10-22T14:54:59.783Z,4748.00
2022-10-22T14:55:59.824Z,3928.00
2022-10-22T14:56:59.800Z,3276.00
2022-10-22T14:57:59.806Z,2940.00
2022-10-22T14:58:59.636Z,2808.00
2022-10-22T15:00:00.086Z,2768.00
2022-10-22T15:00:59.742Z,2816.00
2022-10-22T15:02:00.444Z,2852.00
2022-10-22T15:03:03.302Z,2788.00
2022-10-22T15:03:59.894Z,2752.00
2022-10-22T15:04:59.897Z,2756.00
2022-10-22T15:05:59.604Z,2724.00
2022-10-22T15:06:59.676Z,2664.00
2022-10-22T15:07:59.563Z,2428.00
2022-10-22T15:08:59.730Z,2104.00
2022-10-22T15:09:59.778Z,1996.00
2022-10-22T15:10:59.616Z,2028.00
2022-10-22T15:11:59.531Z,1960.00
2022-10-22T15:12:59.497Z,1884.00
2022-10-22T15:13:59.495Z,1832.00
2022-10-22T15:14:59.580Z,1708.00
2022-10-22T15:15:59.440Z,1572.00
2022-10-22T15:16:59.567Z,1452.00
2022-10-22T15:17:59.533Z,1396.00
2022-10-22T15:18:59.696Z,1404.00
2022-10-22T15:19:59.483Z,1436.00
2022-10-22T15:20:59.930Z,1452.00
2022-10-22T15:21:59.882Z,1408.00
2022-10-22T15:22:59.494Z,1280.00
2022-10-22T15:23:59.409Z,1076.00
2022-10-22T15:24:59.854Z,1008.00
2022-10-22T15:25:59.385Z,1008.00
2022-10-22T15:26:59.554Z,936.00
2022-10-22T15:28:02.035Z,832.00
2022-10-22T15:29:00.340Z,732.00
2022-10-22T15:29:59.516Z,652.00
2022-10-22T15:30:59.323Z,604.00
2022-10-22T15:32:00.772Z,560.00
2022-10-22T15:32:59.335Z,520.00
2022-10-22T15:34:01.744Z,468.00
2022-10-22T15:34:59.376Z,428.00
2022-10-22T15:35:59.534Z,408.00
2022-10-22T15:36:59.530Z,388.00
2022-10-22T15:37:59.234Z,368.00
2022-10-22T15:38:59.211Z,348.00
2022-10-22T15:39:59.221Z,332.00
2022-10-22T15:41:01.646Z,328.00
2022-10-22T15:42:00.424Z,340.00
2022-10-22T15:42:59.234Z,344.00
2022-10-22T15:43:59.337Z,336.00
2022-10-22T15:44:59.151Z,328.00
2022-10-22T15:45:59.216Z,308.00
2022-10-22T15:46:59.265Z,292.00
2022-10-22T15:47:59.105Z,284.00
2022-10-22T15:48:59.255Z,284.00
2022-10-22T15:49:59.251Z,276.00
2022-10-22T15:50:59.461Z,268.00
2022-10-22T15:51:59.256Z,256.00
2022-10-22T15:52:59.181Z,252.00
2022-10-22T15:53:59.056Z,252.00
2022-10-22T15:54:59.333Z,252.00
2022-10-22T15:55:59.195Z,260.00
2022-10-22T15:56:59.498Z,260.00
2022-10-22T15:58:01.823Z,264.00
2022-10-22T15:59:00.131Z,264.00
2022-10-22T15:59:59.518Z,272.00
2022-10-22T16:00:59.161Z,272.00
2022-10-22T16:01:58.995Z,280.00
2022-10-22T16:02:59.068Z,276.00
2022-10-22T16:03:58.953Z,272.00
2022-10-22T16:04:58.993Z,260.00
2022-10-22T16:05:58.947Z,248.00
2022-10-22T16:06:58.906Z,240.00
2022-10-22T16:07:59.109Z,228.00
2022-10-22T16:08:59.037Z,228.00
2022-10-22T16:09:58.999Z,216.00
2022-10-22T16:10:58.921Z,208.00
2022-10-22T16:11:58.844Z,200.00
2022-10-22T16:12:58.898Z,192.00
2022-10-22T16:13:59.176Z,184.00
2022-10-22T16:14:59.005Z,176.00
2022-10-22T16:15:58.807Z,168.00
2022-10-22T16:16:58.807Z,160.00
2022-10-22T16:17:58.798Z,144.00
2022-10-22T16:18:58.780Z,132.00
2022-10-22T16:19:58.827Z,124.00
2022-10-22T16:20:58.811Z,112.00
2022-10-22T16:21:58.818Z,104.00
2022-10-22T16:22:59.107Z,96.00
2022-10-22T16:24:03.803Z,88.00
2022-10-22T16:24:59.900Z,84.00
2022-10-22T16:25:58.863Z,72.00
2022-10-22T16:26:58.754Z,68.00
2022-10-22T16:27:58.670Z,64.00
2022-10-22T16:28:58.711Z,56.00
2022-10-22T16:29:58.658Z,52.00
2022-10-22T16:30:59.101Z,48.00
2022-10-22T16:31:59.103Z,48.00
2022-10-22T16:32:58.633Z,40.00
2022-10-22T16:33:58.872Z,36.00
2022-10-22T16:34:58.643Z,32.00
2022-10-22T16:35:58.815Z,28.00
2022-10-22T16:36:58.726Z,28.00
2022-10-22T16:37:58.939Z,24.00
2022-10-22T16:38:58.548Z,20.00
2022-10-22T16:39:58.593Z,20.00
2022-10-22T16:40:58.544Z,16.00
2022-10-22T16:41:58.561Z,12.00
2022-10-22T16:42:58.572Z,8.00
2022-10-22T16:43:58.497Z,8.00
2022-10-22T16:44:58.509Z,4.00
2022-10-22T16:45:58.595Z,4.00
2022-10-22T16:46:58.576Z,4.00
2022-10-22T16:47:58.634Z,4.00
2022-10-22T16:48:58.613Z,4.00
2022-10-22T16:49:58.481Z,4.00
2022-10-22T16:50:58.429Z,0.00
2022-10-22T16:51:58.436Z,4.00
2022-10-22T16:52:58.448Z,4.00
2022-10-22T16:53:58.464Z,0.00
2022-10-22T16:54:58.420Z,0.00
2022-10-22T16:55:58.418Z,0.00
2022-10-22T16:56:58.418Z,0.00
2022-10-22T16:57:58.402Z,0.00
2022-10-22T16:58:58.444Z,0.00
2022-10-22T16:59:58.421Z,0.00
2022-10-22T17:00:58.427Z,0.00
2022-10-22T17:01:58.491Z,0.00
2022-10-22T17:02:58.411Z,0.00
2022-10-22T17:03:58.289Z,0.00
2022-10-22T17:04:58.406Z,0.00
2022-10-22T17:05:58.443Z,0.00
2022-10-22T17:06:58.501Z,0.00
2022-10-22T17:07:58.250Z,0.00
2022-10-22T17:08:58.653Z,0.00
2022-10-22T17:09:58.302Z,0.00
2022-10-22T17:10:58.283Z,0.00
2022-10-22T17:11:58.329Z,0.00
2022-10-22T17:12:58.511Z,0.00
2022-10-22T17:13:58.739Z,0.00
2022-10-22T17:14:58.509Z,0.00
2022-10-22T17:15:58.161Z,0.00
2022-10-22T17:16:58.210Z,0.00
2022-10-22T17:17:58.194Z,0.00
2022-10-22T17:18:58.201Z,0.00
2022-10-22T17:19:58.264Z,0.00
2022-10-22T17:20:58.111Z,0.00
2022-10-22T17:21:58.093Z,0.00
2022-10-22T17:22:58.221Z,0.00
2022-10-22T17:23:58.194Z,0.00
2022-10-22T17:24:58.249Z,0.00
2022-10-22T17:25:58.080Z,0.00
2022-10-22T17:26:58.180Z,0.00
2022-10-22T17:27:58.232Z,0.00
2022-10-22T17:28:58.362Z,0.00
2022-10-22T17:29:58.387Z,0.00
2022-10-22T17:30:58.227Z,0.00
2022-10-22T17:31:58.328Z,0.00
2022-10-22T17:32:58.077Z,0.00
2022-10-22T17:33:58.079Z,0.00
2022-10-22T17:34:58.094Z,0.00
2022-10-22T17:35:58.098Z,0.00
2022-10-22T17:36:58.108Z,0.00
2022-10-22T17:37:58.035Z,0.00
2022-10-22T17:38:58.332Z,0.00
2022-10-22T17:39:58.035Z,0.00
2022-10-22T17:40:59.895Z,0.00
2022-10-22T17:41:57.977Z,0.00
2022-10-22T17:42:58.230Z,0.00
2022-10-22T17:43:58.010Z,0.00
2022-10-22T17:44:58.092Z,0.00
2022-10-22T17:45:57.871Z,0.00
2022-10-22T17:46:57.868Z,0.00
2022-10-22T17:47:57.928Z,0.00
2022-10-22T17:48:58.602Z,0.00
2022-10-22T17:49:58.051Z,0.00
2022-10-22T17:50:59.234Z,0.00
2022-10-22T17:51:57.985Z,0.00
2022-10-22T17:52:57.813Z,0.00
2022-10-22T17:53:57.926Z,0.00
2022-10-22T17:54:57.760Z,0.00
2022-10-22T17:55:58.774Z,0.00
2022-10-22T17:56:57.851Z,0.00
2022-10-22T17:57:57.760Z,0.00
2022-10-22T17:58:57.706Z,0.00
2022-10-22T17:59:57.711Z,0.00
2022-10-22T18:00:57.859Z,0.00
2022-10-22T18:02:00.097Z,0.00
2022-10-22T18:02:57.785Z,0.00
2022-10-22T18:03:57.844Z,0.00
2022-10-22T18:04:57.888Z,0.00
2022-10-22T18:05:57.679Z,0.00
2022-10-22T18:06:57.666Z,0.00
2022-10-22T18:07:57.944Z,0.00
2022-10-22T18:08:57.597Z,0.00
2022-10-22T18:09:57.856Z,0.00
2022-10-22T18:10:57.735Z,0.00
2022-10-22T18:11:57.923Z,0.00
2022-10-22T18:12:57.551Z,0.00
2022-10-22T18:13:57.777Z,0.00
2022-10-22T18:14:57.542Z,0.00
2022-10-22T18:15:58.063Z,0.00
2022-10-22T18:16:57.521Z,0.00
2022-10-22T18:17:57.523Z,0.00
2022-10-22T18:18:57.596Z,0.00
2022-10-22T18:19:57.647Z,0.00
2022-10-22T18:20:57.557Z,0.00
2022-10-22T18:21:57.461Z,0.00
2022-10-22T18:22:57.429Z,0.00
2022-10-22T18:23:58.034Z,0.00
2022-10-22T18:24:58.366Z,0.00
2022-10-22T18:25:57.391Z,0.00
2022-10-22T18:26:58.137Z,0.00
2022-10-22T18:27:57.414Z,0.00
2022-10-22T18:28:58.966Z,0.00
2022-10-22T18:29:57.456Z,0.00
2022-10-22T18:30:57.340Z,0.00
2022-10-22T18:31:57.469Z,0.00
2022-10-22T18:32:57.400Z,0.00
2022-10-22T18:33:57.403Z,0.00
2022-10-22T18:34:57.396Z,0.00
2022-10-22T18:35:57.313Z,0.00
2022-10-22T18:36:57.303Z,0.00
2022-10-22T18:37:57.313Z,0.00
2022-10-22T18:38:57.335Z,0.00
2022-10-22T18:39:57.314Z,0.00
2022-10-22T18:40:57.345Z,0.00
2022-10-22T18:41:57.323Z,0.00
2022-10-22T18:42:57.507Z,0.00
2022-10-22T18:43:57.217Z,0.00
2022-10-22T18:44:57.520Z,0.00
2022-10-22T18:45:57.529Z,0.00
2022-10-22T18:46:57.335Z,0.00
2022-10-22T18:47:57.335Z,0.00
2022-10-22T18:48:57.167Z,0.00
2022-10-22T18:49:57.410Z,0.00
2022-10-22T18:50:57.524Z,0.00
2022-10-22T18:51:57.176Z,0.00
2022-10-22T18:52:57.383Z,0.00
2022-10-22T18:54:05.793Z,0.00
2022-10-22T18:54:58.100Z,0.00
2022-10-22T18:55:57.088Z,0.00
2022-10-22T18:56:59.342Z,0.00
2022-10-22T18:57:57.091Z,0.00
2022-10-22T18:58:57.043Z,0.00
2022-10-22T18:59:59.296Z,0.00
2022-10-22T19:00:57.163Z,0.00
2022-10-22T19:01:57.027Z,0.00
2022-10-22T19:02:57.010Z,0.00
2022-10-22T19:03:57.004Z,0.00
2022-10-22T19:04:56.992Z,0.00
2022-10-22T19:05:57.525Z,0.00
2022-10-22T19:06:57.000Z,0.00
2022-10-22T19:07:56.959Z,0.00
2022-10-22T19:08:56.966Z,0.00
2022-10-22T19:09:56.931Z,0.00
2022-10-22T19:10:56.935Z,0.00
2022-10-22T19:11:56.977Z,0.00
2022-10-22T19:12:56.883Z,0.00
2022-10-22T19:13:56.890Z,0.00
2022-10-22T19:14:56.927Z,0.00
2022-10-22T19:15:56.877Z,0.00
2022-10-22T19:16:56.877Z,0.00
2022-10-22T19:17:56.844Z,0.00
2022-10-22T19:18:56.850Z,0.00
2022-10-22T19:19:56.899Z,0.00
2022-10-22T19:20:56.818Z,0.00
2022-10-22T19:21:56.791Z,0.00
2022-10-22T19:22:56.778Z,0.00
2022-10-22T19:23:56.915Z,0.00
2022-10-22T19:24:56.776Z,0.00
2022-10-22T19:25:56.799Z,0.00
2022-10-22T19:26:56.759Z,0.00
2022-10-22T19:27:56.734Z,0.00
2022-10-22T19:28:56.785Z,0.00
2022-10-22T19:29:56.717Z,0.00
2022-10-22T19:30:56.699Z,0.00
2022-10-22T19:31:56.734Z,0.00
2022-10-22T19:32:56.676Z,0.00
2022-10-22T19:33:56.673Z,0.00
2022-10-22T19:34:56.666Z,0.00
2022-10-22T19:35:56.654Z,0.00
2022-10-22T19:36:56.643Z,0.00
2022-10-22T19:37:56.629Z,0.00
2022-10-22T19:38:56.597Z,0.00
2022-10-22T19:39:56.599Z,0.00
2022-10-22T19:40:56.613Z,0.00
2022-10-22T19:41:56.574Z,0.00
2022-10-22T19:42:56.640Z,0.00
2022-10-22T19:43:56.555Z,0.00
2022-10-22T19:44:56.568Z,0.00
2022-10-22T19:45:56.542Z,0.00
2022-10-22T19:46:56.539Z,0.00
2022-10-22T19:47:56.536Z,0.00
2022-10-22T19:48:57.978Z,0.00
2022-10-22T19:49:56.493Z,0.00
2022-10-22T19:50:56.513Z,0.00
2022-10-22T19:51:56.546Z,0.00
2022-10-22T19:52:56.488Z,0.00
2022-10-22T19:53:56.468Z,0.00
2022-10-22T19:54:56.459Z,0.00
2022-10-22T19:55:56.550Z,0.00
2022-10-22T19:56:56.458Z,0.00
2022-10-22T19:57:56.416Z,0.00
2022-10-22T19:58:56.409Z,0.00
2022-10-22T19:59:56.434Z,0.00
2022-10-22T20:00:56.453Z,0.00
2022-10-22T20:01:56.378Z,0.00
2022-10-22T20:02:56.357Z,0.00
2022-10-22T20:03:56.360Z,0.00
2022-10-22T20:04:56.387Z,0.00
2022-10-22T20:05:56.341Z,0.00
2022-10-22T20:06:56.323Z,0.00
2022-10-22T20:07:56.325Z,0.00
2022-10-22T20:08:56.500Z,0.00
2022-10-22T20:09:56.285Z,0.00
2022-10-22T20:10:56.286Z,0.00
2022-10-22T20:11:56.309Z,0.00
2022-10-22T20:12:56.254Z,0.00
2022-10-22T20:13:56.247Z,0.00
2022-10-22T20:14:56.232Z,0.00
2022-10-22T20:15:56.217Z,0.00
2022-10-22T20:16:56.238Z,0.00
2022-10-22T20:17:56.218Z,0.00
2022-10-22T20:18:56.231Z,0.00
2022-10-22T20:19:56.165Z,0.00
2022-10-22T20:20:56.209Z,0.00
2022-10-22T20:21:56.225Z,0.00
2022-10-22T20:22:56.154Z,0.00
2022-10-22T20:23:56.154Z,0.00
2022-10-22T20:24:56.126Z,0.00
2022-10-22T20:25:56.124Z,0.00
2022-10-22T20:26:56.120Z,0.00
2022-10-22T20:27:56.090Z,0.00
2022-10-22T20:28:56.090Z,0.00
2022-10-22T20:29:56.188Z,0.00
2022-10-22T20:30:56.441Z,0.00
2022-10-22T20:31:56.049Z,0.00
2022-10-22T20:32:56.087Z,0.00
2022-10-22T20:33:56.032Z,0.00
2022-10-22T20:34:56.188Z,0.00
2022-10-22T20:35:56.005Z,0.00
2022-10-22T20:36:56.009Z,0.00
2022-10-22T20:37:56.002Z,0.00
2022-10-22T20:38:55.976Z,0.00
2022-10-22T20:39:56.103Z,0.00
2022-10-22T20:40:55.951Z,0.00
2022-10-22T20:41:55.936Z,0.00
2022-10-22T20:42:56.876Z,0.00
2022-10-22T20:43:55.922Z,0.00
2022-10-22T20:44:55.903Z,0.00
2022-10-22T20:45:55.901Z,0.00
2022-10-22T20:48:02.157Z,0.00
2022-10-22T20:48:56.856Z,0.00
2022-10-22T20:49:55.880Z,0.00
2022-10-22T20:50:55.854Z,0.00
2022-10-22T20:51:55.828Z,0.00
2022-10-22T20:52:55.822Z,0.00
2022-10-22T20:53:55.804Z,0.00
2022-10-22T20:54:55.801Z,0.00
2022-10-22T20:55:55.788Z,0.00
2022-10-22T20:56:55.775Z,0.00
2022-10-22T20:57:55.756Z,0.00
2022-10-22T20:58:55.746Z,0.00
2022-10-22T20:59:55.745Z,0.00
2022-10-22T21:00:55.821Z,0.00
2022-10-22T21:01:55.910Z,0.00
2022-10-22T21:02:55.698Z,0.00
2022-10-22T21:03:55.712Z,0.00
2022-10-22T21:04:55.693Z,0.00
2022-10-22T21:05:55.667Z,0.00